createdAt,value
2018-04-27T00:00:52.523Z,18.46
2018-04-27T00:01:51.117Z,18.46
2018-04-27T00:02:53.167Z,18.47
2018-04-27T00:03:50.972Z,18.44
2018-04-27T00:04:51.878Z,18.48
2018-04-27T00:05:50.794Z,18.43
2018-04-27T00:06:51.166Z,18.44
2018-04-27T00:07:51.649Z,18.47
2018-04-27T00:08:50.786Z,18.44
2018-04-27T00:09:51.231Z,18.44
2018-04-27T00:10:51.440Z,18.47
2018-04-27T00:11:53.356Z,18.44
2018-04-27T00:12:51.284Z,18.44
2018-04-27T00:13:50.798Z,18.48
2018-04-27T00:14:51.306Z,18.48
2018-04-27T00:15:50.699Z,18.46
2018-04-27T00:16:55.714Z,18.46
2018-04-27T00:17:50.597Z,18.43
2018-04-27T00:18:51.018Z,18.42
2018-04-27T00:20:01.402Z,18.44
2018-04-27T00:20:50.821Z,18.43
2018-04-27T00:21:50.723Z,18.41
2018-04-27T00:22:50.901Z,18.44
2018-04-27T00:23:51.167Z,18.41
2018-04-27T00:24:50.627Z,18.41
2018-04-27T00:25:51.182Z,18.43
2018-04-27T00:26:50.772Z,18.42
2018-04-27T00:27:50.754Z,18.43
2018-04-27T00:28:51.166Z,18.43
2018-04-27T00:29:50.946Z,18.42
2018-04-27T00:30:51.574Z,18.39
2018-04-27T00:31:58.477Z,18.41
2018-04-27T00:32:50.914Z,18.41
2018-04-27T00:33:50.615Z,18.4
2018-04-27T00:34:51.066Z,18.43
2018-04-27T00:35:51.465Z,18.43
2018-04-27T00:36:51.053Z,18.4
2018-04-27T00:37:51.296Z,18.42
2018-04-27T00:38:51.035Z,18.41
2018-04-27T00:39:50.588Z,18.39
2018-04-27T00:40:50.977Z,18.4
2018-04-27T00:41:52.085Z,18.41
2018-04-27T00:42:51.117Z,18.41
2018-04-27T00:43:50.846Z,18.41
2018-04-27T00:44:51.298Z,18.39
2018-04-27T00:45:50.798Z,18.38
2018-04-27T00:46:51.146Z,18.41
2018-04-27T00:47:50.755Z,18.38
2018-04-27T00:48:52.669Z,18.38
2018-04-27T00:49:50.877Z,18.4
2018-04-27T00:50:51.034Z,18.38
2018-04-27T00:51:50.614Z,18.39
2018-04-27T00:52:52.930Z,18.38
2018-04-27T00:53:50.885Z,18.37
2018-04-27T00:54:51.636Z,18.38
2018-04-27T00:55:51.941Z,18.39
2018-04-27T00:56:50.865Z,18.38
2018-04-27T00:57:50.861Z,18.37
2018-04-27T00:58:51.876Z,18.37
2018-04-27T00:59:52.110Z,18.39
2018-04-27T01:00:51.334Z,18.38
2018-04-27T01:01:51.378Z,18.38
2018-04-27T01:02:51.172Z,18.38
2018-04-27T01:03:51.467Z,18.35
2018-04-27T01:04:51.070Z,18.38
2018-04-27T01:05:51.029Z,18.36
2018-04-27T01:06:51.104Z,18.37
2018-04-27T01:07:51.330Z,18.35
2018-04-27T01:08:51.832Z,18.35
2018-04-27T01:09:51.108Z,18.37
2018-04-27T01:10:50.822Z,18.36
2018-04-27T01:11:51.071Z,18.35
2018-04-27T01:12:51.463Z,18.36
2018-04-27T01:13:51.054Z,18.36
2018-04-27T01:14:51.146Z,18.35
2018-04-27T01:15:51.407Z,18.36
2018-04-27T01:16:59.234Z,18.35
2018-04-27T01:23:17.727Z,18.34
2018-04-27T01:24:18.112Z,18.33
2018-04-27T01:25:17.003Z,18.34
2018-04-27T01:26:17.483Z,18.35
2018-04-27T01:27:17.326Z,18.33
2018-04-27T01:28:18.933Z,18.32
2018-04-27T01:29:24.613Z,18.33
2018-04-27T01:30:16.991Z,18.35
2018-04-27T01:31:17.037Z,18.34
2018-04-27T01:32:17.335Z,18.33
2018-04-27T01:33:17.139Z,18.33
2018-04-27T01:34:16.863Z,18.34
2018-04-27T01:35:17.214Z,18.3
2018-04-27T01:36:17.730Z,18.35
2018-04-27T01:37:16.781Z,18.33
2018-04-27T01:38:17.561Z,18.3
2018-04-27T01:39:16.898Z,18.33
2018-04-27T01:40:16.831Z,18.32
2018-04-27T01:41:16.929Z,18.33
2018-04-27T01:42:17.348Z,18.33
2018-04-27T01:43:17.074Z,18.29
2018-04-27T01:44:16.957Z,18.29
2018-04-27T01:45:24.833Z,18.32
2018-04-27T01:46:17.649Z,18.3
2018-04-27T01:47:16.881Z,18.29
2018-04-27T01:48:17.232Z,18.32
2018-04-27T01:49:17.112Z,18.29
2018-04-27T01:50:16.760Z,18.32
2018-04-27T01:51:16.652Z,18.32
2018-04-27T01:52:17.174Z,18.29
2018-04-27T01:53:17.196Z,18.3
2018-04-27T01:54:17.275Z,18.32
2018-04-27T01:55:16.993Z,18.29
2018-04-27T01:56:17.536Z,18.3
2018-04-27T01:57:18.662Z,18.29
2018-04-27T01:58:17.092Z,18.3
2018-04-27T01:59:16.880Z,18.32
2018-04-27T02:00:17.295Z,18.32
2018-04-27T02:01:16.912Z,18.29
2018-04-27T02:02:16.864Z,18.28
2018-04-27T02:03:17.118Z,18.28
2018-04-27T02:04:16.968Z,18.29
2018-04-27T02:05:18.869Z,18.28
2018-04-27T02:06:17.098Z,18.27
2018-04-27T02:07:16.692Z,18.28
2018-04-27T02:08:17.543Z,18.27
2018-04-27T02:09:19.824Z,18.27
2018-04-27T02:10:19.854Z,18.28
2018-04-27T02:11:16.776Z,18.27
2018-04-27T02:12:17.346Z,18.29
2018-04-27T02:13:17.884Z,18.27
2018-04-27T02:14:16.859Z,18.27
2018-04-27T02:15:17.295Z,18.28
2018-04-27T02:16:16.960Z,18.27
2018-04-27T02:22:49.351Z,18.27
2018-04-27T02:23:48.816Z,18.26
2018-04-27T02:24:48.067Z,18.26
2018-04-27T02:25:48.059Z,18.26
2018-04-27T02:26:48.187Z,18.28
2018-04-27T02:27:48.817Z,18.25
2018-04-27T02:28:48.722Z,18.26
2018-04-27T02:29:48.498Z,18.27
2018-04-27T02:30:48.954Z,18.24
2018-04-27T02:31:49.455Z,18.25
2018-04-27T02:32:48.521Z,18.25
2018-04-27T02:33:48.486Z,18.24
2018-04-27T02:34:48.189Z,18.25
2018-04-27T02:35:48.648Z,18.26
2018-04-27T02:36:48.392Z,18.26
2018-04-27T02:37:48.271Z,18.25
2018-04-27T02:38:48.005Z,18.24
2018-04-27T02:39:47.979Z,18.25
2018-04-27T02:40:47.884Z,18.24
2018-04-27T02:41:48.201Z,18.26
2018-04-27T02:42:47.966Z,18.25
2018-04-27T02:43:48.560Z,18.25
2018-04-27T02:44:48.432Z,18.26
2018-04-27T02:45:48.121Z,18.24
2018-04-27T02:46:48.555Z,18.24
2018-04-27T02:47:49.141Z,18.24
2018-04-27T02:48:48.142Z,18.22
2018-04-27T02:49:48.071Z,18.23
2018-04-27T02:50:48.566Z,18.24
2018-04-27T02:51:49.175Z,18.24
2018-04-27T02:52:48.176Z,18.25
2018-04-27T02:53:48.119Z,18.24
2018-04-27T02:54:48.814Z,18.22
2018-04-27T02:55:48.353Z,18.22
2018-04-27T02:56:48.095Z,18.23
2018-04-27T02:57:48.043Z,18.23
2018-04-27T02:58:49.415Z,18.22
2018-04-27T02:59:51.125Z,18.24
2018-04-27T03:00:48.243Z,18.22
2018-04-27T03:01:48.047Z,18.21
2018-04-27T03:02:47.925Z,18.22
2018-04-27T03:03:47.841Z,18.22
2018-04-27T03:04:48.008Z,18.22
2018-04-27T03:05:47.973Z,18.22
2018-04-27T03:06:49.857Z,18.21
2018-04-27T03:07:47.865Z,18.23
2018-04-27T03:08:47.923Z,18.22
2018-04-27T03:09:47.851Z,18.22
2018-04-27T03:10:47.937Z,18.21
2018-04-27T03:11:47.970Z,18.22
2018-04-27T03:12:48.155Z,18.21
2018-04-27T03:13:47.904Z,18.2
2018-04-27T03:14:47.841Z,18.23
2018-04-27T03:15:47.985Z,18.21
2018-04-27T03:16:48.028Z,18.2
2018-04-27T03:17:48.076Z,18.22
2018-04-27T03:18:47.970Z,18.21
2018-04-27T03:19:47.999Z,18.19
2018-04-27T03:20:47.983Z,18.19
2018-04-27T03:21:47.903Z,18.2
2018-04-27T03:22:47.958Z,18.18
2018-04-27T03:23:48.257Z,18.22
2018-04-27T03:24:47.974Z,18.19
2018-04-27T03:25:47.753Z,18.19
2018-04-27T03:26:47.964Z,18.21
2018-04-27T03:27:47.880Z,18.19
2018-04-27T03:28:48.006Z,18.19
2018-04-27T03:29:47.959Z,18.2
2018-04-27T03:30:47.931Z,18.19
2018-04-27T03:31:48.006Z,18.15
2018-04-27T03:32:48.025Z,18.2
2018-04-27T03:33:47.983Z,18.18
2018-04-27T03:34:47.970Z,18.19
2018-04-27T03:35:47.841Z,18.2
2018-04-27T03:36:48.040Z,18.17
2018-04-27T03:37:48.009Z,18.17
2018-04-27T03:38:47.917Z,18.19
2018-04-27T03:39:47.957Z,18.2
2018-04-27T03:40:47.937Z,18.17
2018-04-27T03:41:47.848Z,18.19
2018-04-27T03:42:47.854Z,18.17
2018-04-27T03:43:47.921Z,18.14
2018-04-27T03:44:47.870Z,18.18
2018-04-27T03:45:47.979Z,18.18
2018-04-27T03:46:47.919Z,18.17
2018-04-27T03:47:47.947Z,18.17
2018-04-27T03:48:47.898Z,18.19
2018-04-27T03:49:48.090Z,18.15
2018-04-27T03:50:47.779Z,18.18
2018-04-27T03:51:48.262Z,18.17
2018-04-27T03:52:47.897Z,18.17
2018-04-27T03:53:47.990Z,18.18
2018-04-27T03:54:47.879Z,18.14
2018-04-27T03:55:47.978Z,18.17
2018-04-27T03:56:47.885Z,18.17
2018-04-27T03:57:48.008Z,18.15
2018-04-27T03:58:47.855Z,18.14
2018-04-27T03:59:47.969Z,18.17
2018-04-27T04:00:47.979Z,18.14
2018-04-27T04:01:47.993Z,18.15
2018-04-27T04:02:48.001Z,18.14
2018-04-27T04:03:47.792Z,18.17
2018-04-27T04:04:48.230Z,18.12
2018-04-27T04:05:47.976Z,18.17
2018-04-27T04:06:48.067Z,18.15
2018-04-27T04:07:47.810Z,18.13
2018-04-27T04:08:47.873Z,18.13
2018-04-27T04:09:47.952Z,18.13
2018-04-27T04:10:48.017Z,18.13
2018-04-27T04:11:48.062Z,18.14
2018-04-27T04:12:47.983Z,18.14
2018-04-27T04:13:47.897Z,18.15
2018-04-27T04:14:47.895Z,18.15
2018-04-27T04:15:47.862Z,18.12
2018-04-27T04:16:48.053Z,18.12
2018-04-27T04:17:47.904Z,18.14
2018-04-27T04:18:47.841Z,18.13
2018-04-27T04:19:48.093Z,18.12
2018-04-27T04:20:47.978Z,18.15
2018-04-27T04:21:47.879Z,18.12
2018-04-27T04:22:47.782Z,18.12
2018-04-27T04:23:48.012Z,18.13
2018-04-27T04:24:47.896Z,18.14
2018-04-27T04:25:47.982Z,18.13
2018-04-27T04:26:48.040Z,18.13
2018-04-27T04:27:47.971Z,18.12
2018-04-27T04:28:48.143Z,18.12
2018-04-27T04:29:47.991Z,18.17
2018-04-27T04:30:47.857Z,18.12
2018-04-27T04:31:48.001Z,18.12
2018-04-27T04:32:47.825Z,18.15
2018-04-27T04:33:48.014Z,18.13
2018-04-27T04:34:48.002Z,18.11
2018-04-27T04:35:47.924Z,18.13
2018-04-27T04:36:48.020Z,18.14
2018-04-27T04:37:48.002Z,18.12
2018-04-27T04:38:48.031Z,18.14
2018-04-27T04:39:47.888Z,18.12
2018-04-27T04:40:48.072Z,18.11
2018-04-27T04:41:47.763Z,18.13
2018-04-27T04:42:48.078Z,18.12
2018-04-27T04:43:48.085Z,18.1
2018-04-27T04:44:47.970Z,18.12
2018-04-27T04:45:47.994Z,18.11
2018-04-27T04:46:47.979Z,18.12
2018-04-27T04:47:47.817Z,18.11
2018-04-27T04:48:47.988Z,18.12
2018-04-27T04:49:47.849Z,18.12
2018-04-27T04:50:47.970Z,18.13
2018-04-27T04:51:47.844Z,18.13
2018-04-27T04:52:47.957Z,18.11
2018-04-27T04:53:47.839Z,18.11
2018-04-27T04:54:47.895Z,18.12
2018-04-27T04:55:47.808Z,18.11
2018-04-27T04:56:47.781Z,18.14
2018-04-27T04:57:47.943Z,18.12
2018-04-27T04:58:47.790Z,18.11
2018-04-27T04:59:48.071Z,18.12
2018-04-27T05:00:47.846Z,18.1
2018-04-27T05:01:48.010Z,18.09
2018-04-27T05:02:48.412Z,18.12
2018-04-27T05:03:47.847Z,18.11
2018-04-27T05:04:47.896Z,18.14
2018-04-27T05:05:47.955Z,18.11
2018-04-27T05:06:47.977Z,18.11
2018-04-27T05:07:47.866Z,18.09
2018-04-27T05:08:48.208Z,18.12
2018-04-27T05:09:47.895Z,18.1
2018-04-27T05:10:48.079Z,18.12
2018-04-27T05:11:48.017Z,18.12
2018-04-27T05:12:47.927Z,18.1
2018-04-27T05:13:47.877Z,18.1
2018-04-27T05:14:48.238Z,18.14
2018-04-27T05:15:47.986Z,18.1
2018-04-27T05:16:48.033Z,18.11
2018-04-27T05:17:47.827Z,18.12
2018-04-27T05:18:48.014Z,18.1
2018-04-27T05:19:47.789Z,18.12
2018-04-27T05:20:48.091Z,18.12
2018-04-27T05:21:48.239Z,18.1
2018-04-27T05:22:47.853Z,18.12
2018-04-27T05:23:47.947Z,18.12
2018-04-27T05:24:48.032Z,18.1
2018-04-27T05:25:47.816Z,18.09
2018-04-27T05:26:48.092Z,18.1
2018-04-27T05:27:47.830Z,18.09
2018-04-27T05:28:47.958Z,18.1
2018-04-27T05:29:48.624Z,18.12
2018-04-27T05:30:48.011Z,18.09
2018-04-27T05:31:47.819Z,18.1
2018-04-27T05:32:48.075Z,18.1
2018-04-27T05:33:47.850Z,18.1
2018-04-27T05:34:47.859Z,18.11
2018-04-27T05:35:47.757Z,18.12
2018-04-27T05:36:48.259Z,18.12
2018-04-27T05:37:47.783Z,18.09
2018-04-27T05:38:47.860Z,18.1
2018-04-27T05:39:47.931Z,18.11
2018-04-27T05:40:47.878Z,18.11
2018-04-27T05:41:47.860Z,18.11
2018-04-27T05:42:48.026Z,18.12
2018-04-27T05:43:47.801Z,18.11
2018-04-27T05:44:47.913Z,18.12
2018-04-27T05:45:47.868Z,18.12
2018-04-27T05:46:47.932Z,18.11
2018-04-27T05:47:47.903Z,18.13
2018-04-27T05:48:47.809Z,18.12
2018-04-27T05:49:47.876Z,18.1
2018-04-27T05:50:47.932Z,18.12
2018-04-27T05:51:47.726Z,18.1
2018-04-27T05:52:48.061Z,18.11
2018-04-27T05:53:47.998Z,18.11
2018-04-27T05:54:47.909Z,18.11
2018-04-27T05:55:47.803Z,18.1
2018-04-27T05:56:47.786Z,18.1
2018-04-27T05:57:47.758Z,18.1
2018-04-27T05:58:47.860Z,18.11
2018-04-27T05:59:47.901Z,18.12
2018-04-27T06:00:47.890Z,18.09
2018-04-27T06:01:47.991Z,18.12
2018-04-27T06:02:47.852Z,18.13
2018-04-27T06:03:47.887Z,18.12
2018-04-27T06:04:47.815Z,18.12
2018-04-27T06:05:47.839Z,18.12
2018-04-27T06:06:47.959Z,18.12
2018-04-27T06:07:47.918Z,18.1
2018-04-27T06:08:48.075Z,18.13
2018-04-27T06:09:47.898Z,18.11
2018-04-27T06:10:47.936Z,18.11
2018-04-27T06:11:47.970Z,18.12
2018-04-27T06:12:47.974Z,18.11
2018-04-27T06:13:47.858Z,18.11
2018-04-27T06:14:47.839Z,18.12
2018-04-27T06:15:47.811Z,18.12
2018-04-27T06:16:47.753Z,18.11
2018-04-27T06:17:47.793Z,18.12
2018-04-27T06:18:47.917Z,18.12
2018-04-27T06:19:47.824Z,18.11
2018-04-27T06:20:47.848Z,18.11
2018-04-27T06:21:47.761Z,18.12
2018-04-27T06:22:47.867Z,18.11
2018-04-27T06:23:48.003Z,18.12
2018-04-27T06:24:47.954Z,18.11
2018-04-27T06:25:48.595Z,18.12
2018-04-27T06:26:47.902Z,18.11
2018-04-27T06:27:47.901Z,18.11
2018-04-27T06:28:48.123Z,18.1
2018-04-27T06:29:47.756Z,18.13
2018-04-27T06:30:48.020Z,18.13
2018-04-27T06:31:48.122Z,18.1
2018-04-27T06:32:47.943Z,18.12
2018-04-27T06:33:47.771Z,18.12
2018-04-27T06:34:47.879Z,18.12
2018-04-27T06:35:47.817Z,18.11
2018-04-27T06:36:47.887Z,18.12
2018-04-27T06:37:47.866Z,18.12
2018-04-27T06:38:47.861Z,18.1
2018-04-27T06:39:47.785Z,18.12
2018-04-27T06:40:47.757Z,18.09
2018-04-27T06:41:47.867Z,18.1
2018-04-27T06:42:47.713Z,18.11
2018-04-27T06:43:48.005Z,18.09
2018-04-27T06:44:47.995Z,18.1
2018-04-27T06:45:48.050Z,18.1
2018-04-27T06:46:50.436Z,18.11
2018-04-27T06:47:47.955Z,18.12
2018-04-27T06:48:48.590Z,18.1
2018-04-27T06:49:47.895Z,18.09
2018-04-27T06:50:48.009Z,18.12
2018-04-27T06:51:47.733Z,18.12
2018-04-27T06:52:47.845Z,18.12
2018-04-27T06:53:48.187Z,18.12
2018-04-27T06:54:47.903Z,18.11
2018-04-27T06:55:48.027Z,18.12
2018-04-27T06:56:47.826Z,18.11
2018-04-27T06:57:48.004Z,18.12
2018-04-27T06:58:47.878Z,18.09
2018-04-27T06:59:47.909Z,18.12
2018-04-27T07:00:47.825Z,18.1
2018-04-27T07:01:48.187Z,18.11
2018-04-27T07:02:48.039Z,18.12
2018-04-27T07:03:48.376Z,18.09
2018-04-27T07:04:47.932Z,18.11
2018-04-27T07:05:47.740Z,18.12
2018-04-27T07:06:47.774Z,18.1
2018-04-27T07:07:47.809Z,18.09
2018-04-27T07:08:47.941Z,18.14
2018-04-27T07:09:47.948Z,18.12
2018-04-27T07:10:47.965Z,18.11
2018-04-27T07:11:47.912Z,18.12
2018-04-27T07:12:47.904Z,18.1
2018-04-27T07:13:48.027Z,18.1
2018-04-27T07:14:47.882Z,18.12
2018-04-27T07:15:47.854Z,18.13
2018-04-27T07:16:48.277Z,18.12
2018-04-27T07:17:48.236Z,18.12
2018-04-27T07:18:48.079Z,18.11
2018-04-27T07:19:47.819Z,18.09
2018-04-27T07:20:47.783Z,18.1
2018-04-27T07:21:47.969Z,18.12
2018-04-27T07:22:48.521Z,18.1
2018-04-27T07:23:47.859Z,18.12
2018-04-27T07:24:47.759Z,18.1
2018-04-27T07:25:48.210Z,18.08
2018-04-27T07:26:47.715Z,18.1
2018-04-27T07:27:47.991Z,18.1
2018-04-27T07:28:47.864Z,18.1
2018-04-27T07:29:47.774Z,18.11
2018-04-27T07:30:47.719Z,18.1
2018-04-27T07:31:47.850Z,18.08
2018-04-27T07:32:47.761Z,18.11
2018-04-27T07:33:47.888Z,18.1
2018-04-27T07:34:47.762Z,18.09
2018-04-27T07:35:47.938Z,18.12
2018-04-27T07:36:47.805Z,18.1
2018-04-27T07:37:47.794Z,18.09
2018-04-27T07:38:47.897Z,18.11
2018-04-27T07:39:47.985Z,18.11
2018-04-27T07:40:47.989Z,18.1
2018-04-27T07:41:47.797Z,18.12
2018-04-27T07:42:47.784Z,18.11
2018-04-27T07:43:49.790Z,18.1
2018-04-27T07:44:47.931Z,18.12
2018-04-27T07:45:47.819Z,18.11
2018-04-27T07:46:47.978Z,18.1
2018-04-27T07:47:47.910Z,18.12
2018-04-27T07:48:47.900Z,18.11
2018-04-27T07:49:47.932Z,18.09
2018-04-27T07:50:47.926Z,18.12
2018-04-27T07:51:47.761Z,18.11
2018-04-27T07:52:47.847Z,18.1
2018-04-27T07:53:47.816Z,18.11
2018-04-27T07:54:47.964Z,18.09
2018-04-27T07:55:47.934Z,18.11
2018-04-27T07:56:47.744Z,18.13
2018-04-27T07:57:48.124Z,18.11
2018-04-27T07:58:47.868Z,18.09
2018-04-27T07:59:47.830Z,18.11
2018-04-27T08:00:47.915Z,18.11
2018-04-27T08:01:47.885Z,18.1
2018-04-27T08:02:48.017Z,18.11
2018-04-27T08:03:48.043Z,18.09
2018-04-27T08:04:47.791Z,18.09
2018-04-27T08:05:47.890Z,18.12
2018-04-27T08:06:48.044Z,18.11
2018-04-27T08:07:47.873Z,18.11
2018-04-27T08:08:48.439Z,18.11
2018-04-27T08:09:47.816Z,18.1
2018-04-27T08:10:48.045Z,18.1
2018-04-27T08:11:47.839Z,18.11
2018-04-27T08:12:47.893Z,18.1
2018-04-27T08:13:47.851Z,18.1
2018-04-27T08:14:47.968Z,18.12
2018-04-27T08:15:47.841Z,18.09
2018-04-27T08:16:47.830Z,18.1
2018-04-27T08:17:48.002Z,18.11
2018-04-27T08:18:48.090Z,18.12
2018-04-27T08:19:47.861Z,18.1
2018-04-27T08:20:48.030Z,18.12
2018-04-27T08:21:48.019Z,18.12
2018-04-27T08:22:48.052Z,18.09
2018-04-27T08:23:48.039Z,18.12
2018-04-27T08:24:48.005Z,18.09
2018-04-27T08:25:47.814Z,18.11
2018-04-27T08:26:47.975Z,18.11
2018-04-27T08:27:47.769Z,18.1
2018-04-27T08:28:47.992Z,18.1
2018-04-27T08:29:47.949Z,18.12
2018-04-27T08:30:48.035Z,18.08
2018-04-27T08:31:47.887Z,18.09
2018-04-27T08:32:48.023Z,18.11
2018-04-27T08:33:47.915Z,18.1
2018-04-27T08:34:47.894Z,18.2
2018-04-27T08:35:47.938Z,18.35
2018-04-27T08:36:47.877Z,18.28
2018-04-27T08:37:47.883Z,18.28
2018-04-27T08:38:50.343Z,18.32
2018-04-27T08:39:47.823Z,18.29
2018-04-27T08:40:48.018Z,18.29
2018-04-27T08:41:47.860Z,18.33
2018-04-27T08:42:47.774Z,18.34
2018-04-27T08:43:48.344Z,18.34
2018-04-27T08:44:47.794Z,18.35
2018-04-27T08:45:47.754Z,18.34
2018-04-27T08:46:47.803Z,18.33
2018-04-27T08:47:48.630Z,18.33
2018-04-27T08:48:48.002Z,18.3
2018-04-27T08:49:47.958Z,18.33
2018-04-27T08:50:47.825Z,18.34
2018-04-27T08:51:47.842Z,18.3
2018-04-27T08:52:47.957Z,18.3
2018-04-27T08:53:47.782Z,18.29
2018-04-27T08:54:47.744Z,18.29
2018-04-27T08:55:47.729Z,18.33
2018-04-27T08:56:48.003Z,18.33
2018-04-27T08:57:47.873Z,18.3
2018-04-27T08:58:47.870Z,18.33
2018-04-27T08:59:47.873Z,18.33
2018-04-27T09:00:48.059Z,18.34
2018-04-27T09:01:47.802Z,18.32
2018-04-27T09:02:48.370Z,18.3
2018-04-27T09:03:47.859Z,18.32
2018-04-27T09:04:47.988Z,18.32
2018-04-27T09:05:47.883Z,18.33
2018-04-27T09:06:47.877Z,18.34
2018-04-27T09:07:47.819Z,18.29
2018-04-27T09:08:47.925Z,18.33
2018-04-27T09:09:47.815Z,18.34
2018-04-27T09:10:47.774Z,18.3
2018-04-27T09:11:48.054Z,18.35
2018-04-27T09:12:47.774Z,18.32
2018-04-27T09:13:47.829Z,18.33
2018-04-27T09:14:48.000Z,18.34
2018-04-27T09:15:48.013Z,18.33
2018-04-27T09:16:47.965Z,18.32
2018-04-27T09:17:47.832Z,18.35
2018-04-27T09:18:47.840Z,18.34
2018-04-27T09:19:47.907Z,18.33
2018-04-27T09:20:48.089Z,18.35
2018-04-27T09:21:47.732Z,18.3
2018-04-27T09:22:47.802Z,18.33
2018-04-27T09:23:47.890Z,18.3
2018-04-27T09:24:47.825Z,18.29
2018-04-27T09:25:47.852Z,18.28
2018-04-27T09:26:48.119Z,18.27
2018-04-27T09:27:48.041Z,18.26
2018-04-27T09:28:47.889Z,18.22
2018-04-27T09:29:48.050Z,18.24
2018-04-27T09:30:47.770Z,18.2
2018-04-27T09:31:47.806Z,18.17
2018-04-27T09:32:47.995Z,18.19
2018-04-27T09:33:48.061Z,18.19
2018-04-27T09:34:47.969Z,18.18
2018-04-27T09:35:48.052Z,18.18
2018-04-27T09:36:47.875Z,18.14
2018-04-27T09:37:48.039Z,18.14
2018-04-27T09:38:48.003Z,18.17
2018-04-27T09:39:48.111Z,18.15
2018-04-27T09:40:47.962Z,18.17
2018-04-27T09:41:47.722Z,18.17
2018-04-27T09:42:47.948Z,18.12
2018-04-27T09:43:48.036Z,18.11
2018-04-27T09:44:48.511Z,18.17
2018-04-27T09:45:47.886Z,18.13
2018-04-27T09:46:47.979Z,18.14
2018-04-27T09:47:47.871Z,18.17
2018-04-27T09:48:48.081Z,18.15
2018-04-27T09:49:47.874Z,18.19
2018-04-27T09:50:48.383Z,18.2
2018-04-27T09:51:47.942Z,18.19
2018-04-27T09:52:48.003Z,18.19
2018-04-27T09:53:47.993Z,18.22
2018-04-27T09:54:49.299Z,18.2
2018-04-27T09:55:47.920Z,18.21
2018-04-27T09:56:47.941Z,18.22
2018-04-27T09:57:48.011Z,18.23
2018-04-27T09:58:50.608Z,18.22
2018-04-27T09:59:47.922Z,18.23
2018-04-27T10:00:47.913Z,18.25
2018-04-27T10:01:47.990Z,18.23
2018-04-27T10:02:47.825Z,18.24
2018-04-27T10:03:47.933Z,18.24
2018-04-27T10:04:47.846Z,18.26
2018-04-27T10:05:48.461Z,18.25
2018-04-27T10:06:47.879Z,18.23
2018-04-27T10:07:47.933Z,18.24
2018-04-27T10:08:48.097Z,18.25
2018-04-27T10:09:50.535Z,18.25
2018-04-27T10:10:47.891Z,18.24
2018-04-27T10:11:48.035Z,18.23
2018-04-27T10:12:47.884Z,18.22
2018-04-27T10:13:47.868Z,18.2
2018-04-27T10:14:47.822Z,18.23
2018-04-27T10:15:47.835Z,18.23
2018-04-27T10:16:47.887Z,18.23
2018-04-27T10:17:47.767Z,18.22
2018-04-27T10:18:47.953Z,18.21
2018-04-27T10:19:47.943Z,18.23
2018-04-27T10:20:47.850Z,18.22
2018-04-27T10:21:47.908Z,18.21
2018-04-27T10:22:47.777Z,18.2
2018-04-27T10:23:47.879Z,18.22
2018-04-27T10:24:47.999Z,18.2
2018-04-27T10:25:47.968Z,18.21
2018-04-27T10:26:47.993Z,18.2
2018-04-27T10:27:47.861Z,18.21
2018-04-27T10:28:47.890Z,18.2
2018-04-27T10:29:47.900Z,18.19
2018-04-27T10:30:48.206Z,18.21
2018-04-27T10:31:47.814Z,18.18
2018-04-27T10:32:47.838Z,18.22
2018-04-27T10:33:47.951Z,18.2
2018-04-27T10:34:47.945Z,18.79
2018-04-27T10:35:48.266Z,18.58
2018-04-27T10:36:48.253Z,18.48
2018-04-27T10:37:47.974Z,18.41
2018-04-27T10:38:47.698Z,18.41
2018-04-27T10:39:48.230Z,18.38
2018-04-27T10:40:48.233Z,18.37
2018-04-27T10:41:47.776Z,18.37
2018-04-27T10:42:47.716Z,18.35
2018-04-27T10:43:47.810Z,18.36
2018-04-27T10:44:48.661Z,18.36
2018-04-27T10:45:47.799Z,18.3
2018-04-27T10:46:47.896Z,18.34
2018-04-27T10:47:48.007Z,18.36
2018-04-27T10:48:47.863Z,18.36
2018-04-27T10:49:48.011Z,18.37
2018-04-27T10:50:48.026Z,18.39
2018-04-27T10:51:47.967Z,18.39
2018-04-27T10:52:47.838Z,18.36
2018-04-27T10:53:47.877Z,18.39
2018-04-27T10:54:47.937Z,18.38
2018-04-27T10:55:48.022Z,18.39
2018-04-27T10:56:47.936Z,18.4
2018-04-27T10:57:47.889Z,18.39
2018-04-27T10:58:47.758Z,18.39
2018-04-27T10:59:47.967Z,18.4
2018-04-27T11:00:47.903Z,18.41
2018-04-27T11:01:47.706Z,18.41
2018-04-27T11:02:47.740Z,18.43
2018-04-27T11:03:47.849Z,18.46
2018-04-27T11:04:48.042Z,18.43
2018-04-27T11:05:47.870Z,18.49
2018-04-27T11:06:47.858Z,18.47
2018-04-27T11:07:47.833Z,18.46
2018-04-27T11:08:47.974Z,18.49
2018-04-27T11:09:47.740Z,18.49
2018-04-27T11:10:47.948Z,18.49
2018-04-27T11:11:47.887Z,18.5
2018-04-27T11:12:47.986Z,18.49
2018-04-27T11:13:47.963Z,18.48
2018-04-27T11:14:47.884Z,18.52
2018-04-27T11:15:47.826Z,18.51
2018-04-27T11:16:48.442Z,18.49
2018-04-27T11:17:48.041Z,18.51
2018-04-27T11:18:47.847Z,18.5
2018-04-27T11:19:47.897Z,18.5
2018-04-27T11:20:47.785Z,18.5
2018-04-27T11:21:47.711Z,18.52
2018-04-27T11:22:47.824Z,18.5
2018-04-27T11:23:47.853Z,18.5
2018-04-27T11:24:47.836Z,18.53
2018-04-27T11:25:48.040Z,18.5
2018-04-27T11:26:47.920Z,18.52
2018-04-27T11:27:47.767Z,18.52
2018-04-27T11:28:48.503Z,18.5
2018-04-27T11:29:47.882Z,18.55
2018-04-27T11:30:47.970Z,18.53
2018-04-27T11:31:47.890Z,18.52
2018-04-27T11:32:47.843Z,18.53
2018-04-27T11:33:47.814Z,18.54
2018-04-27T11:34:48.005Z,18.53
2018-04-27T11:35:47.695Z,18.55
2018-04-27T11:36:47.897Z,18.54
2018-04-27T11:37:47.771Z,18.53
2018-04-27T11:38:47.812Z,18.53
2018-04-27T11:39:47.736Z,18.52
2018-04-27T11:40:47.946Z,18.5
2018-04-27T11:41:47.998Z,18.52
2018-04-27T11:42:47.876Z,18.5
2018-04-27T11:43:47.951Z,18.49
2018-04-27T11:44:47.927Z,18.51
2018-04-27T11:45:47.798Z,18.51
2018-04-27T11:46:47.890Z,18.49
2018-04-27T11:47:48.144Z,18.49
2018-04-27T11:48:47.871Z,18.47
2018-04-27T11:49:47.814Z,18.48
2018-04-27T11:50:47.924Z,18.5
2018-04-27T11:51:48.017Z,18.48
2018-04-27T11:52:47.951Z,18.49
2018-04-27T11:53:47.870Z,18.52
2018-04-27T11:54:47.813Z,18.5
2018-04-27T11:55:47.980Z,18.52
2018-04-27T11:56:47.867Z,18.55
2018-04-27T11:57:47.857Z,18.51
2018-04-27T11:58:47.650Z,18.52
2018-04-27T11:59:47.962Z,18.49
2018-04-27T12:00:48.048Z,18.49
2018-04-27T12:01:48.549Z,18.49
2018-04-27T12:02:47.819Z,18.5
2018-04-27T12:03:48.147Z,18.48
2018-04-27T12:04:47.922Z,18.49
2018-04-27T12:05:47.894Z,18.48
2018-04-27T12:06:47.848Z,18.46
2018-04-27T12:07:47.801Z,18.46
2018-04-27T12:08:47.914Z,18.46
2018-04-27T12:09:47.932Z,18.46
2018-04-27T12:10:47.813Z,18.43
2018-04-27T12:11:50.496Z,18.46
2018-04-27T12:12:47.841Z,18.44
2018-04-27T12:13:47.815Z,18.44
2018-04-27T12:14:47.762Z,18.44
2018-04-27T12:15:47.916Z,18.46
2018-04-27T12:16:47.962Z,18.44
2018-04-27T12:17:47.756Z,18.46
2018-04-27T12:18:47.914Z,18.42
2018-04-27T12:19:47.808Z,18.43
2018-04-27T12:20:47.854Z,18.43
2018-04-27T12:21:47.690Z,18.42
2018-04-27T12:22:47.892Z,18.42
2018-04-27T12:23:47.836Z,18.44
2018-04-27T12:24:48.008Z,18.42
2018-04-27T12:25:47.737Z,18.42
2018-04-27T12:26:47.964Z,18.4
2018-04-27T12:27:47.729Z,18.4
2018-04-27T12:28:47.869Z,18.38
2018-04-27T12:29:48.666Z,18.4
2018-04-27T12:30:48.135Z,18.37
2018-04-27T12:31:49.082Z,18.37
2018-04-27T12:32:47.981Z,18.38
2018-04-27T12:33:47.828Z,18.37
2018-04-27T12:34:47.855Z,18.37
2018-04-27T12:35:47.895Z,18.37
2018-04-27T12:36:47.738Z,18.33
2018-04-27T12:37:47.903Z,18.35
2018-04-27T12:38:48.255Z,18.36
2018-04-27T12:39:47.821Z,18.34
2018-04-27T12:40:47.898Z,18.34
2018-04-27T12:41:47.877Z,18.34
2018-04-27T12:42:47.991Z,18.34
2018-04-27T12:43:47.657Z,18.32
2018-04-27T12:44:47.936Z,18.35
2018-04-27T12:45:47.828Z,18.33
2018-04-27T12:46:47.826Z,18.33
2018-04-27T12:47:47.975Z,18.34
2018-04-27T12:48:47.923Z,18.32
2018-04-27T12:49:47.916Z,18.33
2018-04-27T12:50:47.810Z,18.33
2018-04-27T12:51:47.783Z,18.33
2018-04-27T12:52:47.812Z,18.29
2018-04-27T12:53:47.892Z,18.32
2018-04-27T12:54:47.838Z,18.3
2018-04-27T12:55:47.700Z,18.32
2018-04-27T12:56:47.949Z,18.32
2018-04-27T12:57:47.971Z,18.29
2018-04-27T12:58:47.908Z,18.29
2018-04-27T12:59:47.935Z,18.3
2018-04-27T13:00:47.780Z,18.29
2018-04-27T13:01:47.834Z,18.29
2018-04-27T13:02:47.891Z,18.3
2018-04-27T13:03:47.767Z,18.3
2018-04-27T13:04:47.795Z,18.29
2018-04-27T13:05:48.028Z,18.3
2018-04-27T13:06:47.752Z,18.29
2018-04-27T13:07:47.956Z,18.28